createdAt,value
2022-10-01T00:02:00.210Z,16.93
2022-10-01T00:04:27.274Z,13.18
2022-10-01T00:06:53.812Z,15.60
2022-10-01T00:09:20.346Z,15.10
2022-10-01T00:11:46.892Z,14.45
2022-10-01T00:14:13.429Z,16.10
2022-10-01T00:16:39.957Z,15.70
2022-10-01T00:19:06.505Z,15.48
2022-10-01T00:21:33.297Z,15.35
2022-10-01T00:24:04.755Z,16.98
2022-10-01T00:26:32.823Z,15.13
2022-10-01T00:29:08.387Z,16.35
2022-10-01T00:31:35.195Z,19.87
2022-10-01T00:34:04.849Z,19.50
2022-10-01T00:36:31.747Z,20.45
2022-10-01T00:39:01.929Z,18.17
2022-10-01T00:41:30.186Z,19.30
2022-10-01T00:44:01.162Z,18.45
2022-10-01T00:46:41.174Z,16.15
2022-10-01T00:49:15.086Z,17.30
2022-10-01T00:51:43.682Z,16.37
2022-10-01T00:54:22.545Z,16.05
2022-10-01T00:56:49.557Z,17.05
2022-10-01T00:59:16.464Z,18.67
2022-10-01T01:01:43.099Z,23.42
2022-10-01T01:04:16.621Z,17.50
2022-10-01T01:06:53.788Z,17.35
2022-10-01T01:09:20.909Z,17.60
2022-10-01T01:12:01.158Z,16.17
2022-10-01T01:14:56.068Z,14.65
2022-10-01T01:17:33.174Z,16.15
2022-10-01T01:20:32.019Z,15.00
2022-10-01T01:23:21.443Z,17.15
2022-10-01T01:25:51.567Z,13.85
2022-10-01T01:28:32.169Z,15.75
2022-10-01T01:31:01.489Z,15.43
2022-10-01T01:33:28.109Z,17.92
2022-10-01T01:36:00.033Z,20.05
2022-10-01T01:38:30.467Z,18.65
2022-10-01T01:40:59.032Z,19.02
2022-10-01T01:43:31.271Z,19.10
2022-10-01T01:45:58.523Z,17.65
2022-10-01T01:48:25.263Z,18.90
2022-10-01T01:50:57.382Z,16.52
2022-10-01T01:53:24.057Z,17.48
2022-10-01T01:55:50.617Z,17.15
2022-10-01T01:58:18.753Z,18.45
2022-10-01T02:00:46.929Z,19.92
2022-10-01T02:03:13.440Z,18.40
2022-10-01T02:05:43.302Z,18.50
2022-10-01T02:08:15.954Z,17.65
2022-10-01T02:10:55.663Z,21.08
2022-10-01T02:13:35.142Z,18.05
2022-10-01T02:16:30.782Z,18.83
2022-10-01T02:19:06.285Z,18.60
2022-10-01T02:21:39.975Z,19.02
2022-10-01T02:24:26.702Z,18.17
2022-10-01T02:26:53.246Z,19.08
2022-10-01T02:29:20.031Z,17.83
2022-10-01T02:31:47.486Z,16.90
2022-10-01T02:34:19.999Z,22.45
2022-10-01T02:36:46.901Z,19.58
2022-10-01T02:39:14.201Z,18.10
2022-10-01T02:41:41.016Z,18.65
2022-10-01T02:44:11.737Z,15.20
2022-10-01T02:46:59.371Z,20.30
2022-10-01T02:49:30.393Z,20.30
2022-10-01T02:52:15.895Z,20.42
2022-10-01T02:55:00.546Z,17.98
2022-10-01T02:57:27.658Z,17.77
2022-10-01T03:00:01.338Z,16.10
2022-10-01T03:02:28.603Z,18.92
2022-10-01T03:04:56.810Z,17.65
2022-10-01T03:07:24.142Z,17.35
2022-10-01T03:09:51.079Z,16.62
2022-10-01T03:12:18.214Z,17.15
2022-10-01T03:14:45.481Z,16.73
2022-10-01T03:17:12.486Z,17.35
2022-10-01T03:19:39.015Z,17.10
2022-10-01T03:22:05.557Z,16.73
2022-10-01T03:24:32.091Z,18.23
2022-10-01T03:26:58.839Z,18.00
2022-10-01T03:29:25.658Z,16.00
2022-10-01T03:31:52.364Z,18.50
2022-10-01T03:34:19.007Z,18.35
2022-10-01T03:36:45.554Z,17.45
2022-10-01T03:39:12.165Z,18.58
2022-10-01T03:41:38.743Z,19.92
2022-10-01T03:44:05.302Z,18.92
2022-10-01T03:46:31.871Z,18.42
2022-10-01T03:49:00.955Z,19.62
2022-10-01T03:51:28.650Z,22.65
2022-10-01T03:56:22.240Z,15.73
2022-10-01T03:58:48.802Z,19.92
2022-10-01T04:01:15.452Z,15.70
2022-10-01T04:03:43.072Z,21.40
2022-10-01T04:06:09.974Z,18.25
2022-10-01T04:08:37.124Z,19.55
2022-10-01T04:11:03.790Z,17.80
2022-10-01T04:13:30.300Z,16.48
2022-10-01T04:15:56.910Z,16.62
2022-10-01T04:18:23.492Z,16.98
2022-10-01T04:20:50.068Z,15.05
2022-10-01T04:23:16.603Z,16.83
2022-10-01T04:25:43.211Z,21.10
2022-10-01T04:28:11.202Z,19.85
2022-10-01T04:30:39.180Z,18.70
2022-10-01T04:33:05.756Z,17.83
2022-10-01T04:35:32.301Z,17.90
2022-10-01T04:38:01.942Z,17.02
2022-10-01T04:40:28.589Z,17.92
2022-10-01T04:42:55.117Z,15.93
2022-10-01T04:45:21.678Z,17.25
2022-10-01T04:47:49.406Z,19.20
2022-10-01T04:52:43.231Z,17.05
2022-10-01T04:55:09.804Z,21.98
2022-10-01T04:57:36.837Z,16.75
2022-10-01T05:00:05.683Z,16.83
2022-10-01T05:02:34.468Z,17.05
2022-10-01T05:05:04.873Z,17.80
2022-10-01T05:07:32.057Z,17.42
2022-10-01T05:09:58.674Z,17.73
2022-10-01T05:12:25.903Z,19.52
2022-10-01T05:14:53.162Z,17.25
2022-10-01T05:17:19.965Z,19.90
2022-10-01T05:19:47.047Z,18.83
2022-10-01T05:22:13.934Z,21.37
2022-10-01T05:24:40.458Z,20.40
2022-10-01T05:27:13.304Z,18.12
2022-10-01T05:29:41.412Z,21.02
2022-10-01T05:32:08.701Z,19.23
2022-10-01T05:34:35.394Z,22.15
2022-10-01T05:37:02.879Z,18.85
2022-10-01T05:39:30.151Z,18.37
2022-10-01T05:42:05.365Z,19.92
2022-10-01T05:44:38.103Z,18.30
2022-10-01T05:47:07.579Z,16.75
2022-10-01T05:49:34.162Z,18.30
2022-10-01T05:52:01.037Z,16.73
2022-10-01T05:54:30.795Z,17.23
2022-10-01T05:56:57.369Z,18.45
2022-10-01T05:59:28.410Z,17.12
2022-10-01T06:01:57.727Z,16.77
2022-10-01T06:04:25.696Z,17.53
2022-10-01T06:06:53.586Z,17.15
2022-10-01T06:09:20.125Z,16.33
2022-10-01T06:11:49.270Z,18.15
2022-10-01T06:14:16.217Z,17.65
2022-10-01T06:16:42.933Z,19.37
2022-10-01T06:19:09.606Z,17.90
2022-10-01T06:21:36.611Z,17.60
2022-10-01T06:24:03.470Z,20.33
2022-10-01T06:26:30.038Z,18.25
2022-10-01T06:28:56.645Z,15.88
2022-10-01T06:31:23.997Z,18.75
2022-10-01T06:33:50.579Z,17.55
2022-10-01T06:36:17.209Z,19.90
2022-10-01T06:38:43.849Z,19.98
2022-10-01T06:41:10.717Z,19.37
2022-10-01T06:43:37.300Z,15.70
2022-10-01T06:46:04.515Z,16.80
2022-10-01T06:48:31.474Z,17.92
2022-10-01T06:50:58.381Z,17.42
2022-10-01T06:53:24.927Z,17.08
2022-10-01T06:55:51.470Z,16.87
2022-10-01T06:58:19.702Z,16.67
2022-10-01T07:00:46.867Z,19.45
2022-10-01T07:03:15.844Z,19.20
2022-10-01T07:05:42.879Z,20.98
2022-10-01T07:08:09.455Z,18.87
2022-10-01T07:10:36.420Z,20.52
2022-10-01T07:13:13.084Z,19.42
2022-10-01T07:15:39.675Z,18.77
2022-10-01T07:18:06.758Z,18.83
2022-10-01T07:20:35.997Z,17.37
2022-10-01T07:23:02.540Z,18.80
2022-10-01T07:25:29.308Z,19.73
2022-10-01T07:28:00.775Z,20.47
2022-10-01T07:30:27.426Z,16.35
2022-10-01T07:32:54.426Z,20.45
2022-10-01T07:35:21.254Z,19.02
2022-10-01T07:37:48.455Z,19.37
2022-10-01T07:40:16.454Z,18.90
2022-10-01T07:42:43.623Z,18.75
2022-10-01T07:45:10.606Z,18.15
2022-10-01T07:47:37.199Z,18.15
2022-10-01T07:50:04.103Z,19.00
2022-10-01T07:52:30.702Z,20.52
2022-10-01T07:54:57.222Z,19.40
2022-10-01T07:57:23.810Z,18.42
2022-10-01T07:59:55.676Z,17.73
2022-10-01T08:02:22.763Z,18.77
2022-10-01T08:05:07.971Z,19.03
2022-10-01T08:07:35.851Z,20.15
2022-10-01T08:10:04.969Z,17.90
2022-10-01T08:12:31.686Z,22.65
2022-10-01T08:14:58.331Z,18.60
2022-10-01T08:17:28.644Z,18.15
2022-10-01T08:19:55.947Z,17.75
2022-10-01T08:22:22.519Z,19.35
2022-10-01T08:24:49.076Z,20.50
2022-10-01T08:27:15.660Z,18.05
2022-10-01T08:29:45.786Z,19.48
2022-10-01T08:32:12.422Z,17.52
2022-10-01T08:34:39.068Z,15.87
2022-10-01T08:37:05.634Z,20.52
2022-10-01T08:39:32.481Z,18.58
2022-10-01T08:42:15.410Z,18.55
2022-10-01T08:44:43.777Z,17.15
2022-10-01T08:47:17.027Z,15.25
2022-10-01T08:49:46.430Z,16.20
2022-10-01T08:52:20.048Z,18.20
2022-10-01T08:55:01.617Z,15.93
2022-10-01T08:57:30.258Z,19.25
2022-10-01T08:59:59.504Z,17.27
2022-10-01T09:02:33.794Z,17.67
2022-10-01T09:05:07.902Z,19.15
2022-10-01T09:08:15.405Z,16.45
2022-10-01T09:11:00.770Z,21.92
2022-10-01T09:13:54.470Z,20.92
2022-10-01T09:16:32.959Z,21.98
2022-10-01T09:19:08.156Z,21.10
2022-10-01T09:21:50.897Z,24.65
2022-10-01T09:24:41.186Z,22.52
2022-10-01T09:27:13.650Z,23.38
2022-10-01T09:29:43.307Z,26.15
2022-10-01T09:32:11.736Z,20.98
2022-10-01T09:34:40.074Z,23.42
2022-10-01T09:37:14.892Z,19.25
2022-10-01T09:40:01.031Z,23.02
2022-10-01T09:42:28.051Z,19.95
2022-10-01T09:44:54.692Z,21.85
2022-10-01T09:47:22.022Z,19.80
2022-10-01T09:49:48.938Z,20.98
2022-10-01T09:52:15.357Z,25.83
2022-10-01T09:55:02.543Z,18.95
2022-10-01T09:57:33.982Z,21.00
2022-10-01T10:00:07.674Z,19.75
2022-10-01T10:02:48.780Z,19.25
2022-10-01T10:05:18.037Z,19.87
2022-10-01T10:07:52.026Z,15.18
2022-10-01T10:10:41.296Z,17.45
2022-10-01T10:13:14.735Z,19.37
2022-10-01T10:15:51.763Z,18.95
2022-10-01T10:18:28.880Z,17.98
2022-10-01T10:20:55.491Z,19.10
2022-10-01T10:23:25.460Z,20.03
2022-10-01T10:26:02.939Z,21.12
2022-10-01T10:28:43.344Z,19.33
2022-10-01T10:31:14.257Z,20.67
2022-10-01T10:34:02.823Z,17.30
2022-10-01T10:36:30.136Z,19.00
2022-10-01T10:38:56.847Z,17.33
2022-10-01T10:41:29.230Z,17.05
2022-10-01T10:44:04.407Z,19.37
2022-10-01T10:46:33.060Z,15.50
2022-10-01T10:49:05.884Z,16.42
2022-10-01T10:51:45.176Z,19.83
2022-10-01T10:54:29.296Z,16.02
2022-10-01T10:57:03.283Z,18.08
2022-10-01T10:59:31.834Z,14.87
2022-10-01T11:02:02.627Z,16.70
2022-10-01T11:04:45.342Z,18.80
2022-10-01T11:07:13.622Z,17.77
2022-10-01T11:10:22.854Z,18.23
2022-10-01T11:13:24.762Z,15.90
2022-10-01T11:16:00.729Z,18.83
2022-10-01T11:18:45.184Z,17.65
2022-10-01T11:21:26.902Z,17.45
2022-10-01T11:24:09.285Z,18.92
2022-10-01T11:26:50.566Z,16.95
2022-10-01T11:30:03.739Z,21.30
2022-10-01T11:32:38.989Z,16.95
2022-10-01T11:35:22.269Z,16.08
2022-10-01T11:38:10.906Z,14.95
2022-10-01T11:40:49.114Z,12.57
2022-10-01T11:43:27.643Z,13.18
2022-10-01T11:45:56.910Z,11.30
2022-10-01T11:48:33.660Z,9.80
2022-10-01T11:51:02.966Z,10.43
2022-10-01T11:53:34.287Z,9.68
2022-10-01T11:56:29.289Z,9.15
2022-10-01T11:58:58.937Z,8.52
2022-10-01T12:01:49.182Z,9.30
2022-10-01T12:04:32.558Z,13.07
2022-10-01T12:07:23.347Z,15.82
2022-10-01T12:10:28.672Z,7.57
2022-10-01T12:13:03.212Z,10.13
2022-10-01T12:15:49.380Z,6.40
2022-10-01T12:18:21.128Z,8.25
2022-10-01T12:20:52.679Z,9.82
2022-10-01T12:23:24.869Z,10.70
2022-10-01T12:26:12.969Z,9.75
2022-10-01T12:29:00.336Z,7.95
2022-10-01T12:31:27.242Z,6.35
2022-10-01T12:33:53.719Z,14.07
2022-10-01T12:36:30.968Z,7.93
2022-10-01T12:39:22.435Z,10.37
2022-10-01T12:42:01.938Z,7.47
2022-10-01T12:45:05.189Z,6.82
2022-10-01T12:48:28.609Z,5.93
2022-10-01T12:51:13.068Z,7.32
2022-10-01T12:53:48.164Z,11.05
2022-10-01T12:56:15.899Z,9.27
2022-10-01T12:59:04.008Z,4.30
2022-10-01T13:01:41.005Z,4.37
2022-10-01T13:04:17.590Z,7.47
2022-10-01T13:07:08.035Z,6.87
2022-10-01T13:09:39.503Z,5.87
2022-10-01T13:12:25.873Z,8.40
2022-10-01T13:14:53.487Z,8.18
2022-10-01T13:17:54.543Z,5.65
2022-10-01T13:20:40.992Z,8.02
2022-10-01T13:23:21.835Z,4.25
2022-10-01T13:25:58.378Z,10.70
2022-10-01T13:28:35.300Z,6.60
2022-10-01T13:31:10.247Z,7.28
2022-10-01T13:33:37.316Z,7.03
2022-10-01T13:36:05.414Z,5.87
2022-10-01T13:38:37.486Z,6.22
2022-10-01T13:41:29.537Z,6.40
2022-10-01T13:43:59.096Z,4.68
2022-10-01T13:46:27.832Z,5.25
2022-10-01T13:48:54.370Z,7.10
2022-10-01T13:51:20.944Z,5.33
2022-10-01T13:53:50.617Z,7.17
2022-10-01T13:56:36.206Z,6.40
2022-10-01T13:59:04.399Z,6.72
2022-10-01T14:01:41.689Z,9.18
2022-10-01T14:04:39.091Z,10.10
2022-10-01T14:07:15.903Z,8.75
2022-10-01T14:09:46.330Z,10.88
2022-10-01T14:12:35.839Z,9.95
2022-10-01T14:15:26.340Z,8.23
2022-10-01T14:17:53.274Z,7.03
2022-10-01T14:20:28.798Z,8.43
2022-10-01T14:22:58.247Z,7.95
2022-10-01T14:25:36.391Z,9.48
2022-10-01T14:30:54.391Z,8.13
2022-10-01T14:33:34.991Z,10.65
2022-10-01T14:36:34.998Z,12.52
2022-10-01T14:39:05.445Z,11.68
2022-10-01T14:41:33.881Z,10.38
2022-10-01T14:44:01.580Z,11.75
2022-10-01T14:46:28.215Z,11.68
2022-10-01T14:48:58.495Z,11.10
2022-10-01T14:51:29.283Z,11.73
2022-10-01T14:53:59.492Z,11.88
2022-10-01T14:56:26.072Z,13.82
2022-10-01T14:58:55.160Z,10.15
2022-10-01T15:01:22.964Z,10.13
2022-10-01T15:03:50.215Z,11.38
2022-10-01T15:06:18.731Z,9.73
2022-10-01T15:08:47.874Z,13.62
2022-10-01T15:11:15.846Z,15.75
2022-10-01T15:13:44.194Z,14.35
2022-10-01T15:16:15.329Z,16.20
2022-10-01T15:18:50.167Z,15.57
2022-10-01T15:21:26.366Z,18.65
2022-10-01T15:23:52.934Z,15.10
2022-10-01T15:26:22.507Z,17.02
2022-10-01T15:28:49.094Z,15.98
2022-10-01T15:31:16.748Z,16.83
2022-10-01T15:33:43.403Z,14.45
2022-10-01T15:36:17.526Z,17.17
2022-10-01T15:38:45.250Z,15.60
2022-10-01T15:41:32.636Z,14.00
2022-10-01T15:44:02.509Z,13.35
2022-10-01T15:46:31.378Z,10.93
2022-10-01T15:49:20.442Z,11.45
2022-10-01T15:54:40.179Z,10.68
2022-10-01T15:57:07.309Z,11.35
2022-10-01T15:59:34.231Z,11.60
2022-10-01T16:02:00.846Z,8.32
2022-10-01T16:04:27.454Z,9.82
2022-10-01T16:06:54.012Z,10.07
2022-10-01T16:09:24.421Z,8.65
2022-10-01T16:11:55.309Z,8.98
2022-10-01T16:14:27.950Z,8.30
2022-10-01T16:17:16.328Z,8.13
2022-10-01T16:19:43.643Z,5.60
2022-10-01T16:22:19.365Z,7.72
2022-10-01T16:24:56.373Z,6.00
2022-10-01T16:27:30.272Z,7.45
2022-10-01T16:30:11.927Z,6.70
2022-10-01T16:32:38.560Z,6.45
2022-10-01T16:35:28.525Z,7.82
2022-10-01T16:37:57.417Z,5.03
2022-10-01T16:40:26.034Z,6.53
2022-10-01T16:42:52.711Z,4.85
2022-10-01T16:45:27.687Z,4.53
2022-10-01T16:47:56.709Z,4.25
2022-10-01T16:50:23.415Z,8.32
2022-10-01T16:52:53.840Z,4.93
2022-10-01T16:55:25.793Z,4.37
2022-10-01T16:57:54.551Z,3.75
2022-10-01T17:00:22.514Z,4.30
2022-10-01T17:02:49.573Z,4.32
2022-10-01T17:05:30.373Z,2.95
2022-10-01T17:08:05.209Z,5.53
2022-10-01T17:10:32.620Z,3.92
2022-10-01T17:12:59.685Z,6.53
2022-10-01T17:15:27.125Z,5.00
2022-10-01T17:17:54.434Z,3.60
2022-10-01T17:20:22.120Z,5.05
2022-10-01T17:25:19.975Z,5.47
2022-10-01T17:27:46.618Z,3.10
2022-10-01T17:30:13.274Z,3.83
2022-10-01T17:32:40.278Z,3.15
2022-10-01T17:35:07.432Z,8.02
2022-10-01T17:37:34.552Z,6.00
2022-10-01T17:40:01.251Z,4.72
2022-10-01T17:42:27.869Z,3.77
2022-10-01T17:44:54.868Z,3.60
2022-10-01T17:47:21.442Z,6.20
2022-10-01T17:49:47.993Z,4.43
2022-10-01T17:52:14.577Z,3.22
2022-10-01T17:54:41.110Z,4.18
2022-10-01T17:57:10.861Z,4.15
2022-10-01T17:59:38.024Z,3.60
2022-10-01T18:02:23.500Z,3.92
2022-10-01T18:04:52.194Z,4.30
2022-10-01T18:07:19.408Z,4.50
2022-10-01T18:09:46.168Z,4.37
2022-10-01T18:12:13.214Z,4.70
2022-10-01T18:14:39.797Z,4.80
2022-10-01T18:17:06.341Z,5.90
2022-10-01T18:22:19.528Z,4.47
2022-10-01T18:24:46.112Z,6.10
2022-10-01T18:27:13.138Z,5.22
2022-10-01T18:29:39.670Z,7.30
2022-10-01T18:32:09.179Z,8.00
2022-10-01T18:34:42.067Z,7.45
2022-10-01T18:37:39.993Z,6.78
2022-10-01T18:40:07.103Z,8.68
2022-10-01T18:42:40.941Z,6.05
2022-10-01T18:45:14.608Z,6.30
2022-10-01T18:47:58.671Z,6.65
2022-10-01T18:50:31.164Z,5.93
2022-10-01T18:53:07.048Z,8.30
2022-10-01T18:55:40.383Z,6.65
2022-10-01T18:58:22.017Z,8.50
2022-10-01T19:01:08.306Z,8.23
2022-10-01T19:04:00.603Z,8.52
2022-10-01T19:06:42.279Z,8.85
2022-10-01T19:09:18.766Z,8.90
2022-10-01T19:11:49.225Z,9.85
2022-10-01T19:14:15.629Z,9.95
2022-10-01T19:16:52.439Z,11.88
2022-10-01T19:19:36.447Z,10.02
2022-10-01T19:22:10.195Z,11.80
2022-10-01T19:24:54.313Z,8.38
2022-10-01T19:27:56.112Z,8.35
2022-10-01T19:30:22.719Z,7.50
2022-10-01T19:32:54.620Z,6.78
2022-10-01T19:35:28.209Z,7.40
2022-10-01T19:38:02.072Z,10.02
2022-10-01T19:40:32.793Z,11.77
2022-10-01T19:43:03.873Z,7.70
2022-10-01T19:45:37.729Z,7.85
2022-10-01T19:48:04.143Z,8.00
2022-10-01T19:50:33.779Z,5.82
2022-10-01T19:53:01.378Z,5.35
2022-10-01T19:55:32.148Z,5.97
2022-10-01T19:58:02.211Z,7.82
2022-10-01T20:00:28.911Z,7.95
2022-10-01T20:03:04.111Z,6.47
2022-10-01T20:05:55.862Z,5.85
2022-10-01T20:08:42.039Z,7.78
2022-10-01T20:11:29.875Z,4.70
2022-10-01T20:15:11.342Z,5.05
2022-10-01T20:17:53.493Z,6.62
2022-10-01T20:20:44.644Z,4.78
2022-10-01T20:23:30.164Z,5.85
2022-10-01T20:26:29.780Z,6.10
2022-10-01T20:31:41.357Z,6.43
2022-10-01T20:34:44.947Z,5.75
2022-10-01T20:37:40.785Z,5.35
2022-10-01T20:40:26.996Z,4.97
2022-10-01T20:42:56.657Z,5.60
2022-10-01T20:45:26.697Z,5.35
2022-10-01T20:48:11.648Z,5.57
2022-10-01T20:50:44.596Z,4.32
2022-10-01T20:53:32.177Z,4.65
2022-10-01T20:56:09.875Z,4.90
2022-10-01T20:58:52.397Z,4.68
2022-10-01T21:01:23.966Z,5.28
2022-10-01T21:04:13.183Z,7.70
2022-10-01T21:06:45.785Z,3.67
2022-10-01T21:09:18.785Z,3.87
2022-10-01T21:11:48.538Z,4.80
2022-10-01T21:14:24.853Z,3.55
2022-10-01T21:17:15.675Z,5.87
2022-10-01T21:20:04.633Z,3.72
2022-10-01T21:25:28.017Z,4.20
2022-10-01T21:28:12.911Z,2.87
2022-10-01T21:31:03.403Z,5.28
2022-10-01T21:33:34.089Z,6.00
2022-10-01T21:36:11.324Z,4.50
2022-10-01T21:38:54.645Z,4.68
2022-10-01T21:41:53.580Z,3.62
2022-10-01T21:44:47.436Z,4.97
2022-10-01T21:47:43.716Z,3.45
2022-10-01T21:50:20.652Z,4.50
2022-10-01T21:53:28.865Z,7.20
2022-10-01T21:56:23.644Z,3.92
2022-10-01T21:59:01.084Z,6.87
2022-10-01T22:01:37.984Z,3.70
2022-10-01T22:04:13.318Z,4.35
2022-10-01T22:06:52.866Z,4.87
2022-10-01T22:09:27.159Z,4.43
2022-10-01T22:11:55.292Z,5.43
2022-10-01T22:14:22.084Z,4.45
2022-10-01T22:16:59.541Z,2.77
2022-10-01T22:19:28.630Z,3.57
2022-10-01T22:22:18.416Z,4.05
2022-10-01T22:24:51.713Z,4.82
2022-10-01T22:27:37.392Z,2.83
2022-10-01T22:30:13.067Z,5.03
2022-10-01T22:33:07.729Z,4.32
2022-10-01T22:35:38.939Z,2.85
2022-10-01T22:38:09.970Z,4.30
2022-10-01T22:40:40.426Z,3.65
2022-10-01T22:43:09.909Z,3.75
2022-10-01T22:46:03.358Z,3.03
2022-10-01T22:48:29.775Z,3.17
2022-10-01T22:51:12.586Z,2.92
2022-10-01T22:54:02.017Z,3.75
2022-10-01T22:56:54.077Z,2.60
2022-10-01T22:59:35.787Z,4.68
2022-10-01T23:02:44.227Z,3.83
2022-10-01T23:06:04.960Z,3.47
2022-10-01T23:08:43.381Z,3.35
2022-10-01T23:14:12.740Z,3.25
2022-10-01T23:16:54.353Z,2.35
2022-10-01T23:19:39.848Z,3.15
2022-10-01T23:22:28.677Z,3.25
2022-10-01T23:25:13.587Z,1.90
2022-10-01T23:28:10.491Z,3.72
2022-10-01T23:30:47.094Z,5.45
2022-10-01T23:33:19.890Z,4.12
2022-10-01T23:36:02.066Z,2.92
2022-10-01T23:38:37.612Z,3.83
2022-10-01T23:41:11.600Z,2.12
2022-10-01T23:43:43.407Z,2.08
2022-10-01T23:46:31.670Z,7.12
2022-10-01T23:49:11.518Z,3.45
2022-10-01T23:51:58.972Z,2.72
2022-10-01T23:54:50.279Z,4.43
2022-10-01T23:57:31.282Z,2.92
